sensor_id;sensor_type;location;lat;lon;timestamp;pressure;altitude;pressure_sealevel;temperature;humidity
26807;BME280;14380;49.910;6.792;2023-05-25T00:00:08;99496.13;;;7.80;100.00
26807;BME280;14380;49.910;6.792;2023-05-25T00:02:35;99488.16;;;7.82;100.00
26807;BME280;14380;49.910;6.792;2023-05-25T00:05:02;99493.59;;;7.77;100.00
26807;BME280;14380;49.910;6.792;2023-05-25T00:07:29;99488.78;;;7.90;100.00
26807;BME280;14380;49.910;6.792;2023-05-25T00:09:57;99490.00;;;7.80;100.00
26807;BME280;14380;49.910;6.792;2023-05-25T00:12:24;99496.75;;;7.30;100.00
26807;BME280;14380;49.910;6.792;2023-05-25T00:14:51;99502.47;;;7.44;100.00
26807;BME280;14380;49.910;6.792;2023-05-25T00:17:17;99495.84;;;7.61;100.00
26807;BME280;14380;49.910;6.792;2023-05-25T00:19:46;99493.13;;;7.64;100.00
26807;BME280;14380;49.910;6.792;2023-05-25T00:22:12;99490.50;;;7.64;100.00
26807;BME280;14380;49.910;6.792;2023-05-25T00:24:39;99498.38;;;7.64;100.00
26807;BME280;14380;49.910;6.792;2023-05-25T00:27:07;99492.75;;;7.48;100.00
26807;BME280;14380;49.910;6.792;2023-05-25T00:29:34;99492.69;;;7.50;100.00
26807;BME280;14380;49.910;6.792;2023-05-25T00:32:00;99484.59;;;7.84;100.00
26807;BME280;14380;49.910;6.792;2023-05-25T00:34:27;99490.53;;;7.63;100.00
26807;BME280;14380;49.910;6.792;2023-05-25T00:36:54;99490.09;;;7.77;100.00
26807;BME280;14380;49.910;6.792;2023-05-25T00:39:21;99487.13;;;7.87;100.00
26807;BME280;14380;49.910;6.792;2023-05-25T00:41:48;99485.81;;;7.74;100.00
26807;BME280;14380;49.910;6.792;2023-05-25T00:44:16;99484.06;;;7.46;100.00
26807;BME280;14380;49.910;6.792;2023-05-25T00:46:47;99478.91;;;7.70;100.00
26807;BME280;14380;49.910;6.792;2023-05-25T00:49:14;99484.16;;;7.41;100.00
26807;BME280;14380;49.910;6.792;2023-05-25T00:51:43;99478.88;;;7.13;100.00
26807;BME280;14380;49.910;6.792;2023-05-25T00:54:11;99487.06;;;7.32;100.00
26807;BME280;14380;49.910;6.792;2023-05-25T00:56:39;99470.94;;;7.44;100.00
26807;BME280;14380;49.910;6.792;2023-05-25T00:59:06;99482.63;;;7.34;100.00
26807;BME280;14380;49.910;6.792;2023-05-25T01:01:37;99479.50;;;7.23;100.00
26807;BME280;14380;49.910;6.792;2023-05-25T01:04:06;99479.16;;;7.34;100.00
26807;BME280;14380;49.910;6.792;2023-05-25T01:06:35;99482.03;;;7.26;100.00
26807;BME280;14380;49.910;6.792;2023-05-25T01:09:04;99478.97;;;7.10;100.00
26807;BME280;14380;49.910;6.792;2023-05-25T01:11:35;99472.72;;;7.44;100.00
26807;BME280;14380;49.910;6.792;2023-05-25T01:14:04;99475.53;;;7.08;100.00
26807;BME280;14380;49.910;6.792;2023-05-25T01:16:31;99472.22;;;7.03;100.00
26807;BME280;14380;49.910;6.792;2023-05-25T01:18:59;99469.19;;;7.15;100.00
26807;BME280;14380;49.910;6.792;2023-05-25T01:21:31;99470.34;;;7.06;100.00
26807;BME280;14380;49.910;6.792;2023-05-25T01:24:05;99474.78;;;7.04;100.00
26807;BME280;14380;49.910;6.792;2023-05-25T01:26:39;99469.25;;;6.50;100.00
26807;BME280;14380;49.910;6.792;2023-05-25T01:29:10;99472.97;;;7.06;100.00
26807;BME280;14380;49.910;6.792;2023-05-25T01:31:38;99485.28;;;6.73;100.00
26807;BME280;14380;49.910;6.792;2023-05-25T01:34:04;99475.03;;;6.95;100.00
26807;BME280;14380;49.910;6.792;2023-05-25T01:36:33;99476.88;;;6.61;100.00
26807;BME280;14380;49.910;6.792;2023-05-25T01:38:59;99476.59;;;6.70;100.00
26807;BME280;14380;49.910;6.792;2023-05-25T01:41:26;99478.03;;;6.82;100.00
26807;BME280;14380;49.910;6.792;2023-05-25T01:43:53;99477.28;;;6.77;100.00
26807;BME280;14380;49.910;6.792;2023-05-25T01:46:25;99481.97;;;6.66;100.00
26807;BME280;14380;49.910;6.792;2023-05-25T01:48:59;99482.31;;;6.53;100.00
26807;BME280;14380;49.910;6.792;2023-05-25T01:51:31;99486.53;;;6.59;100.00
26807;BME280;14380;49.910;6.792;2023-05-25T01:54:07;99483.81;;;6.29;100.00
26807;BME280;14380;49.910;6.792;2023-05-25T01:56:36;99483.00;;;6.60;100.00
26807;BME280;14380;49.910;6.792;2023-05-25T01:59:06;99485.63;;;6.60;100.00
26807;BME280;14380;49.910;6.792;2023-05-25T02:01:34;99478.13;;;6.46;100.00
26807;BME280;14380;49.910;6.792;2023-05-25T02:04:02;99481.72;;;6.75;100.00
26807;BME280;14380;49.910;6.792;2023-05-25T02:06:29;99478.59;;;6.62;100.00
26807;BME280;14380;49.910;6.792;2023-05-25T02:08:56;99481.84;;;6.70;100.00
26807;BME280;14380;49.910;6.792;2023-05-25T02:11:23;99476.72;;;6.66;100.00
26807;BME280;14380;49.910;6.792;2023-05-25T02:13:50;99484.47;;;6.70;100.00
26807;BME280;14380;49.910;6.792;2023-05-25T02:16:17;99477.94;;;6.54;100.00
26807;BME280;14380;49.910;6.792;2023-05-25T02:18:43;99480.94;;;6.72;100.00
26807;BME280;14380;49.910;6.792;2023-05-25T02:21:10;99480.94;;;6.38;100.00
26807;BME280;14380;49.910;6.792;2023-05-25T02:23:37;99480.56;;;6.54;100.00
26807;BME280;14380;49.910;6.792;2023-05-25T02:26:04;99481.56;;;6.48;100.00
26807;BME280;14380;49.910;6.792;2023-05-25T02:28:31;99478.53;;;6.31;100.00
26807;BME280;14380;49.910;6.792;2023-05-25T02:30:58;99476.28;;;6.50;100.00
26807;BME280;14380;49.910;6.792;2023-05-25T02:33:25;99479.00;;;6.47;100.00
26807;BME280;14380;49.910;6.792;2023-05-25T02:35:51;99488.44;;;6.54;100.00
26807;BME280;14380;49.910;6.792;2023-05-25T02:38:18;99494.81;;;6.44;100.00
26807;BME280;14380;49.910;6.792;2023-05-25T02:40:45;99486.81;;;6.48;100.00
26807;BME280;14380;49.910;6.792;2023-05-25T02:43:11;99495.47;;;6.52;100.00
26807;BME280;14380;49.910;6.792;2023-05-25T02:45:39;99492.56;;;6.30;100.00
26807;BME280;14380;49.910;6.792;2023-05-25T02:48:05;99490.69;;;6.35;100.00
26807;BME280;14380;49.910;6.792;2023-05-25T02:50:32;99495.41;;;6.20;100.00
26807;BME280;14380;49.910;6.792;2023-05-25T02:52:59;99483.66;;;6.35;100.00
26807;BME280;14380;49.910;6.792;2023-05-25T02:55:25;99481.25;;;6.28;100.00
26807;BME280;14380;49.910;6.792;2023-05-25T02:57:52;99488.38;;;6.22;100.00
26807;BME280;14380;49.910;6.792;2023-05-25T03:00:18;99486.34;;;6.32;100.00
26807;BME280;14380;49.910;6.792;2023-05-25T03:02:47;99483.72;;;6.32;100.00
26807;BME280;14380;49.910;6.792;2023-05-25T03:05:14;99487.69;;;6.14;100.00
26807;BME280;14380;49.910;6.792;2023-05-25T03:07:41;99492.09;;;6.14;100.00
26807;BME280;14380;49.910;6.792;2023-05-25T03:10:08;99496.22;;;6.22;100.00
26807;BME280;14380;49.910;6.792;2023-05-25T03:12:35;99483.97;;;5.87;100.00
26807;BME280;14380;49.910;6.792;2023-05-25T03:15:02;99494.72;;;6.14;100.00
26807;BME280;14380;49.910;6.792;2023-05-25T03:17:28;99492.78;;;6.20;100.00
26807;BME280;14380;49.910;6.792;2023-05-25T03:19:56;99486.09;;;6.08;100.00
26807;BME280;14380;49.910;6.792;2023-05-25T03:22:23;99497.13;;;6.21;100.00
26807;BME280;14380;49.910;6.792;2023-05-25T03:24:50;99496.09;;;6.27;100.00
26807;BME280;14380;49.910;6.792;2023-05-25T03:27:17;99505.16;;;6.15;100.00
26807;BME280;14380;49.910;6.792;2023-05-25T03:29:44;99509.13;;;5.94;100.00
26807;BME280;14380;49.910;6.792;2023-05-25T03:32:10;99507.00;;;6.12;100.00
26807;BME280;14380;49.910;6.792;2023-05-25T03:34:37;99514.88;;;6.10;100.00
26807;BME280;14380;49.910;6.792;2023-05-25T03:37:05;99508.97;;;6.02;100.00
26807;BME280;14380;49.910;6.792;2023-05-25T03:39:32;99511.84;;;6.27;100.00
26807;BME280;14380;49.910;6.792;2023-05-25T03:41:58;99511.88;;;6.25;100.00
26807;BME280;14380;49.910;6.792;2023-05-25T03:44:25;99518.66;;;6.34;100.00
26807;BME280;14380;49.910;6.792;2023-05-25T03:46:52;99510.50;;;6.45;100.00
26807;BME280;14380;49.910;6.792;2023-05-25T03:49:18;99532.72;;;5.94;100.00
26807;BME280;14380;49.910;6.792;2023-05-25T03:51:45;99521.81;;;6.13;100.00
26807;BME280;14380;49.910;6.792;2023-05-25T03:54:13;99529.13;;;6.36;100.00
26807;BME280;14380;49.910;6.792;2023-05-25T03:56:39;99518.69;;;6.33;100.00
26807;BME280;14380;49.910;6.792;2023-05-25T03:59:06;99520.22;;;6.42;100.00
26807;BME280;14380;49.910;6.792;2023-05-25T04:01:33;99527.94;;;6.48;100.00
26807;BME280;14380;49.910;6.792;2023-05-25T04:04:02;99531.16;;;6.59;100.00
26807;BME280;14380;49.910;6.792;2023-05-25T04:06:29;99523.13;;;6.64;100.00
26807;BME280;14380;49.910;6.792;2023-05-25T04:08:55;99529.56;;;6.52;100.00
26807;BME280;14380;49.910;6.792;2023-05-25T04:11:24;99523.19;;;6.94;100.00
26807;BME280;14380;49.910;6.792;2023-05-25T04:13:51;99525.72;;;6.98;100.00
26807;BME280;14380;49.910;6.792;2023-05-25T04:16:17;99526.31;;;7.07;100.00
26807;BME280;14380;49.910;6.792;2023-05-25T04:18:45;99526.31;;;7.07;100.00
26807;BME280;14380;49.910;6.792;2023-05-25T04:21:12;99527.19;;;7.37;100.00
26807;BME280;14380;49.910;6.792;2023-05-25T04:23:39;99524.34;;;7.73;100.00
26807;BME280;14380;49.910;6.792;2023-05-25T04:26:07;99523.88;;;7.61;100.00
26807;BME280;14380;49.910;6.792;2023-05-25T04:28:35;99531.03;;;7.85;100.00
26807;BME280;14380;49.910;6.792;2023-05-25T04:31:05;99531.22;;;7.79;100.00
26807;BME280;14380;49.910;6.792;2023-05-25T04:33:31;99535.16;;;8.46;100.00
26807;BME280;14380;49.910;6.792;2023-05-25T04:35:58;99538.13;;;8.37;100.00
26807;BME280;14380;49.910;6.792;2023-05-25T04:38:25;99542.19;;;8.73;100.00
26807;BME280;14380;49.910;6.792;2023-05-25T04:40:51;99549.66;;;8.33;100.00
26807;BME280;14380;49.910;6.792;2023-05-25T04:43:19;99552.50;;;8.54;100.00
26807;BME280;14380;49.910;6.792;2023-05-25T04:45:47;99554.06;;;8.59;100.00
26807;BME280;14380;49.910;6.792;2023-05-25T04:48:15;99558.16;;;8.93;100.00
26807;BME280;14380;49.910;6.792;2023-05-25T04:50:42;99554.88;;;9.36;100.00
26807;BME280;14380;49.910;6.792;2023-05-25T04:53:08;99549.03;;;9.74;100.00
26807;BME280;14380;49.910;6.792;2023-05-25T04:55:35;99546.81;;;10.07;100.00
26807;BME280;14380;49.910;6.792;2023-05-25T04:58:02;99552.00;;;9.42;100.00
26807;BME280;14380;49.910;6.792;2023-05-25T05:00:29;99557.47;;;9.84;100.00
26807;BME280;14380;49.910;6.792;2023-05-25T05:02:57;99568.91;;;9.60;100.00
26807;BME280;14380;49.910;6.792;2023-05-25T05:05:24;99570.34;;;10.14;100.00
26807;BME280;14380;49.910;6.792;2023-05-25T05:07:51;99570.88;;;10.44;100.00
26807;BME280;14380;49.910;6.792;2023-05-25T05:10:18;99574.19;;;10.49;100.00
26807;BME280;14380;49.910;6.792;2023-05-25T05:12:44;99572.06;;;10.80;100.00
26807;BME280;14380;49.910;6.792;2023-05-25T05:15:11;99581.22;;;10.92;100.00
26807;BME280;14380;49.910;6.792;2023-05-25T05:17:37;99579.88;;;10.61;100.00
26807;BME280;14380;49.910;6.792;2023-05-25T05:20:07;99582.06;;;10.92;100.00
26807;BME280;14380;49.910;6.792;2023-05-25T05:22:36;99589.97;;;11.53;100.00
26807;BME280;14380;49.910;6.792;2023-05-25T05:25:03;99591.38;;;11.41;100.00
26807;BME280;14380;49.910;6.792;2023-05-25T05:27:29;99593.47;;;11.13;100.00
26807;BME280;14380;49.910;6.792;2023-05-25T05:29:56;99593.34;;;11.95;100.00
26807;BME280;14380;49.910;6.792;2023-05-25T05:32:22;99598.91;;;11.50;100.00
26807;BME280;14380;49.910;6.792;2023-05-25T05:34:49;99600.13;;;12.19;100.00
26807;BME280;14380;49.910;6.792;2023-05-25T05:37:17;99602.66;;;12.03;100.00
26807;BME280;14380;49.910;6.792;2023-05-25T05:39:43;99597.81;;;12.31;100.00
26807;BME280;14380;49.910;6.792;2023-05-25T05:42:10;99601.81;;;12.03;100.00
26807;BME280;14380;49.910;6.792;2023-05-25T05:44:36;99605.78;;;11.93;100.00
26807;BME280;14380;49.910;6.792;2023-05-25T05:47:03;99608.91;;;12.57;100.00
26807;BME280;14380;49.910;6.792;2023-05-25T05:49:30;99608.44;;;12.48;100.00
26807;BME280;14380;49.910;6.792;2023-05-25T05:51:58;99603.63;;;12.74;100.00
26807;BME280;14380;49.910;6.792;2023-05-25T05:54:26;99604.16;;;12.99;100.00
26807;BME280;14380;49.910;6.792;2023-05-25T05:56:53;99606.25;;;13.09;100.00
26807;BME280;14380;49.910;6.792;2023-05-25T05:59:20;99604.53;;;13.08;100.00
26807;BME280;14380;49.910;6.792;2023-05-25T06:01:47;99599.09;;;12.94;100.00
26807;BME280;14380;49.910;6.792;2023-05-25T06:04:13;99595.97;;;13.37;96.86
26807;BME280;14380;49.910;6.792;2023-05-25T06:06:40;99597.41;;;13.44;99.38
26807;BME280;14380;49.910;6.792;2023-05-25T06:09:09;99603.66;;;13.59;97.39
26807;BME280;14380;49.910;6.792;2023-05-25T06:11:37;99605.91;;;13.33;99.10
26807;BME280;14380;49.910;6.792;2023-05-25T06:14:04;99615.81;;;13.47;98.58
26807;BME280;14380;49.910;6.792;2023-05-25T06:16:31;99606.88;;;13.66;99.63
26807;BME280;14380;49.910;6.792;2023-05-25T06:18:57;99609.06;;;13.58;96.37
26807;BME280;14380;49.910;6.792;2023-05-25T06:21:24;99619.44;;;13.78;98.60
26807;BME280;14380;49.910;6.792;2023-05-25T06:23:50;99614.34;;;14.07;99.22
26807;BME280;14380;49.910;6.792;2023-05-25T06:26:17;99609.78;;;14.25;95.58
26807;BME280;14380;49.910;6.792;2023-05-25T06:28:45;99611.25;;;13.83;96.35
26807;BME280;14380;49.910;6.792;2023-05-25T06:31:13;99618.00;;;14.05;94.03
26807;BME280;14380;49.910;6.792;2023-05-25T06:33:40;99622.97;;;14.27;95.92
26807;BME280;14380;49.910;6.792;2023-05-25T06:36:07;99616.38;;;14.18;95.66
26807;BME280;14380;49.910;6.792;2023-05-25T06:38:35;99622.47;;;14.04;96.11
26807;BME280;14380;49.910;6.792;2023-05-25T06:41:01;99617.56;;;13.80;94.03
26807;BME280;14380;49.910;6.792;2023-05-25T06:43:29;99619.09;;;13.85;96.37
26807;BME280;14380;49.910;6.792;2023-05-25T06:45:57;99625.06;;;13.72;97.18
26807;BME280;14380;49.910;6.792;2023-05-25T06:48:24;99622.53;;;14.03;96.68
26807;BME280;14380;49.910;6.792;2023-05-25T06:50:51;99621.69;;;14.02;97.60
26807;BME280;14380;49.910;6.792;2023-05-25T06:53:18;99623.56;;;13.68;97.89
26807;BME280;14380;49.910;6.792;2023-05-25T06:55:44;99626.72;;;13.59;99.55
26807;BME280;14380;49.910;6.792;2023-05-25T06:58:11;99627.41;;;13.78;100.00
26807;BME280;14380;49.910;6.792;2023-05-25T07:00:37;99621.53;;;14.05;97.26
26807;BME280;14380;49.910;6.792;2023-05-25T07:03:05;99623.66;;;13.98;96.00
26807;BME280;14380;49.910;6.792;2023-05-25T07:05:32;99632.81;;;13.93;96.93
26807;BME280;14380;49.910;6.792;2023-05-25T07:07:58;99627.44;;;14.26;95.94
26807;BME280;14380;49.910;6.792;2023-05-25T07:10:25;99627.00;;;14.18;94.47
26807;BME280;14380;49.910;6.792;2023-05-25T07:12:51;99634.47;;;14.11;94.96
26807;BME280;14380;49.910;6.792;2023-05-25T07:15:18;99626.47;;;13.95;94.75
26807;BME280;14380;49.910;6.792;2023-05-25T07:17:45;99620.91;;;14.32;93.34
26807;BME280;14380;49.910;6.792;2023-05-25T07:20:14;99630.78;;;13.98;95.33
26807;BME280;14380;49.910;6.792;2023-05-25T07:22:41;99626.56;;;14.26;93.77
26807;BME280;14380;49.910;6.792;2023-05-25T07:25:08;99627.06;;;14.01;94.37
26807;BME280;14380;49.910;6.792;2023-05-25T07:27:35;99627.78;;;14.20;92.86
26807;BME280;14380;49.910;6.792;2023-05-25T07:30:01;99629.97;;;14.44;91.70
26807;BME280;14380;49.910;6.792;2023-05-25T07:32:28;99623.69;;;14.45;91.46
26807;BME280;14380;49.910;6.792;2023-05-25T07:34:54;99625.00;;;14.70;91.15
26807;BME280;14380;49.910;6.792;2023-05-25T07:37:22;99628.63;;;14.67;88.14
26807;BME280;14380;49.910;6.792;2023-05-25T07:39:49;99623.47;;;14.50;91.38
26807;BME280;14380;49.910;6.792;2023-05-25T07:42:16;99619.44;;;15.04;88.35
26807;BME280;14380;49.910;6.792;2023-05-25T07:44:45;99627.50;;;15.32;91.92
26807;BME280;14380;49.910;6.792;2023-05-25T07:47:11;99624.06;;;15.74;88.04
26807;BME280;14380;49.910;6.792;2023-05-25T07:49:38;99622.09;;;15.63;87.58
26807;BME280;14380;49.910;6.792;2023-05-25T07:52:04;99628.16;;;15.51;84.48
26807;BME280;14380;49.910;6.792;2023-05-25T07:54:33;99627.50;;;15.32;84.22
26807;BME280;14380;49.910;6.792;2023-05-25T07:57:04;99637.38;;;15.30;87.07
26807;BME280;14380;49.910;6.792;2023-05-25T07:59:31;99628.13;;;15.07;85.58
26807;BME280;14380;49.910;6.792;2023-05-25T08:01:57;99622.44;;;15.42;87.85
26807;BME280;14380;49.910;6.792;2023-05-25T08:04:24;99629.47;;;16.01;87.50
26807;BME280;14380;49.910;6.792;2023-05-25T08:06:50;99620.72;;;15.85;84.12
26807;BME280;14380;49.910;6.792;2023-05-25T08:09:17;99613.13;;;15.93;84.15
26807;BME280;14380;49.910;6.792;2023-05-25T08:11:45;99627.41;;;15.63;82.06
26807;BME280;14380;49.910;6.792;2023-05-25T08:14:11;99622.94;;;16.20;82.45
26807;BME280;14380;49.910;6.792;2023-05-25T08:16:38;99623.88;;;15.77;83.86
26807;BME280;14380;49.910;6.792;2023-05-25T08:19:05;99623.97;;;16.04;82.95
26807;BME280;14380;49.910;6.792;2023-05-25T08:21:31;99622.53;;;15.99;80.82
26807;BME280;14380;49.910;6.792;2023-05-25T08:23:59;99621.00;;;16.37;82.38
26807;BME280;14380;49.910;6.792;2023-05-25T08:26:28;99616.78;;;16.47;79.87
26807;BME280;14380;49.910;6.792;2023-05-25T08:28:56;99622.75;;;16.23;79.87
26807;BME280;14380;49.910;6.792;2023-05-25T08:31:22;99633.88;;;15.88;78.20
26807;BME280;14380;49.910;6.792;2023-05-25T08:33:49;99634.28;;;16.24;78.46
26807;BME280;14380;49.910;6.792;2023-05-25T08:36:15;99630.31;;;16.44;80.60
26807;BME280;14380;49.910;6.792;2023-05-25T08:38:42;99633.00;;;16.29;79.51
26807;BME280;14380;49.910;6.792;2023-05-25T08:41:11;99640.06;;;16.30;77.52
26807;BME280;14380;49.910;6.792;2023-05-25T08:43:38;99622.91;;;16.34;80.25
26807;BME280;14380;49.910;6.792;2023-05-25T08:46:08;99626.63;;;16.59;77.74
26807;BME280;14380;49.910;6.792;2023-05-25T08:48:36;99626.66;;;16.72;77.49
26807;BME280;14380;49.910;6.792;2023-05-25T08:51:06;99634.56;;;16.46;75.40
26807;BME280;14380;49.910;6.792;2023-05-25T08:53:34;99637.19;;;16.61;75.82
26807;BME280;14380;49.910;6.792;2023-05-25T08:56:03;99639.31;;;16.56;76.92
26807;BME280;14380;49.910;6.792;2023-05-25T08:58:33;99631.50;;;16.53;72.43
26807;BME280;14380;49.910;6.792;2023-05-25T09:01:08;99628.66;;;16.96;76.33
26807;BME280;14380;49.910;6.792;2023-05-25T09:03:37;99627.84;;;17.34;73.72
26807;BME280;14380;49.910;6.792;2023-05-25T09:06:04;99627.88;;;16.94;73.95
26807;BME280;14380;49.910;6.792;2023-05-25T09:08:31;99631.25;;;17.49;76.06
26807;BME280;14380;49.910;6.792;2023-05-25T09:10:58;99623.31;;;17.87;75.22
26807;BME280;14380;49.910;6.792;2023-05-25T09:13:29;99631.06;;;16.86;71.21
26807;BME280;14380;49.910;6.792;2023-05-25T09:15:56;99627.84;;;17.60;73.19
26807;BME280;14380;49.910;6.792;2023-05-25T09:18:24;99632.63;;;17.03;73.06
26807;BME280;14380;49.910;6.792;2023-05-25T09:20:50;99626.44;;;17.42;72.69
26807;BME280;14380;49.910;6.792;2023-05-25T09:23:17;99627.56;;;17.89;73.55
26807;BME280;14380;49.910;6.792;2023-05-25T09:25:45;99628.16;;;17.30;72.90
26807;BME280;14380;49.910;6.792;2023-05-25T09:28:12;99620.31;;;17.78;73.54
26807;BME280;14380;49.910;6.792;2023-05-25T09:30:38;99614.47;;;17.47;72.79
26807;BME280;14380;49.910;6.792;2023-05-25T09:33:09;99619.59;;;17.63;72.35
26807;BME280;14380;49.910;6.792;2023-05-25T09:35:38;99628.03;;;17.57;73.71
26807;BME280;14380;49.910;6.792;2023-05-25T09:38:04;99621.03;;;18.06;73.10
26807;BME280;14380;49.910;6.792;2023-05-25T09:40:32;99622.28;;;17.63;72.99
26807;BME280;14380;49.910;6.792;2023-05-25T09:42:59;99614.28;;;17.37;72.77
26807;BME280;14380;49.910;6.792;2023-05-25T09:45:27;99621.88;;;17.31;73.08
26807;BME280;14380;49.910;6.792;2023-05-25T09:47:53;99622.06;;;17.41;72.70
26807;BME280;14380;49.910;6.792;2023-05-25T09:50:21;99625.22;;;17.84;71.01
26807;BME280;14380;49.910;6.792;2023-05-25T09:52:51;99620.31;;;17.78;73.36
26807;BME280;14380;49.910;6.792;2023-05-25T09:55:17;99619.19;;;18.44;73.47
26807;BME280;14380;49.910;6.792;2023-05-25T09:57:44;99614.50;;;18.10;70.14
26807;BME280;14380;49.910;6.792;2023-05-25T10:00:12;99621.50;;;18.49;70.31
26807;BME280;14380;49.910;6.792;2023-05-25T10:02:40;99620.09;;;18.32;70.61
26807;BME280;14380;49.910;6.792;2023-05-25T10:05:07;99616.22;;;18.60;72.97
26807;BME280;14380;49.910;6.792;2023-05-25T10:07:33;99616.56;;;18.91;70.83
26807;BME280;14380;49.910;6.792;2023-05-25T10:10:05;99615.75;;;19.02;70.43
26807;BME280;14380;49.910;6.792;2023-05-25T10:12:33;99625.31;;;18.93;68.95
26807;BME280;14380;49.910;6.792;2023-05-25T10:15:02;99620.97;;;18.43;69.96
26807;BME280;14380;49.910;6.792;2023-05-25T10:17:30;99630.16;;;18.88;71.87
26807;BME280;14380;49.910;6.792;2023-05-25T10:19:59;99614.84;;;18.90;70.82
26807;BME280;14380;49.910;6.792;2023-05-25T10:22:31;99617.78;;;19.34;69.92
26807;BME280;14380;49.910;6.792;2023-05-25T10:25:05;99623.16;;;18.98;68.01
26807;BME280;14380;49.910;6.792;2023-05-25T10:27:46;99621.19;;;18.53;67.55
26807;BME280;14380;49.910;6.792;2023-05-25T10:30:14;99613.88;;;18.91;66.90
26807;BME280;14380;49.910;6.792;2023-05-25T10:32:41;99616.44;;;18.93;67.61
26807;BME280;14380;49.910;6.792;2023-05-25T10:35:10;99627.94;;;19.06;69.40
26807;BME280;14380;49.910;6.792;2023-05-25T10:37:38;99618.75;;;18.62;67.36
26807;BME280;14380;49.910;6.792;2023-05-25T10:40:07;99609.16;;;18.95;65.89
26807;BME280;14380;49.910;6.792;2023-05-25T10:42:36;99613.81;;;19.04;66.90
26807;BME280;14380;49.910;6.792;2023-05-25T10:45:04;99614.72;;;19.39;65.46
26807;BME280;14380;49.910;6.792;2023-05-25T10:47:31;99603.78;;;19.65;64.74
26807;BME280;14380;49.910;6.792;2023-05-25T10:49:59;99603.06;;;19.51;67.03
26807;BME280;14380;49.910;6.792;2023-05-25T10:52:28;99604.59;;;19.88;65.57
26807;BME280;14380;49.910;6.792;2023-05-25T10:54:55;99617.75;;;19.45;65.45
26807;BME280;14380;49.910;6.792;2023-05-25T10:57:24;99601.56;;;19.24;64.33
26807;BME280;14380;49.910;6.792;2023-05-25T10:59:53;99597.19;;;20.35;66.88
26807;BME280;14380;49.910;6.792;2023-05-25T11:02:26;99596.56;;;19.20;64.99
26807;BME280;14380;49.910;6.792;2023-05-25T11:07:53;99598.88;;;19.24;63.93
26807;BME280;14380;49.910;6.792;2023-05-25T11:10:41;99598.78;;;19.83;64.54
26807;BME280;14380;49.910;6.792;2023-05-25T11:13:36;99597.69;;;19.97;63.55
26807;BME280;14380;49.910;6.792;2023-05-25T11:16:17;99594.00;;;19.75;61.90
26807;BME280;14380;49.910;6.792;2023-05-25T11:18:49;99595.97;;;19.73;64.11
26807;BME280;14380;49.910;6.792;2023-05-25T11:21:21;99594.63;;;19.90;64.07
26807;BME280;14380;49.910;6.792;2023-05-25T11:23:52;99580.13;;;20.04;61.78
26807;BME280;14380;49.910;6.792;2023-05-25T11:26:20;99589.88;;;20.05;63.86
26807;BME280;14380;49.910;6.792;2023-05-25T11:28:49;99595.41;;;20.25;62.32
26807;BME280;14380;49.910;6.792;2023-05-25T11:31:19;99583.16;;;20.43;63.06
26807;BME280;14380;49.910;6.792;2023-05-25T11:33:47;99590.16;;;20.56;63.43
26807;BME280;14380;49.910;6.792;2023-05-25T11:36:16;99582.63;;;20.28;57.21
26807;BME280;14380;49.910;6.792;2023-05-25T11:38:44;99572.72;;;20.29;58.89
26807;BME280;14380;49.910;6.792;2023-05-25T11:41:20;99572.00;;;20.59;65.02
26807;BME280;14380;49.910;6.792;2023-05-25T11:43:49;99572.81;;;20.06;63.25
26807;BME280;14380;49.910;6.792;2023-05-25T11:46:16;99570.59;;;20.44;64.79
26807;BME280;14380;49.910;6.792;2023-05-25T11:48:45;99565.13;;;20.45;63.15
26807;BME280;14380;49.910;6.792;2023-05-25T11:51:15;99560.34;;;20.70;62.16
26807;BME280;14380;49.910;6.792;2023-05-25T11:53:56;99560.34;;;21.13;64.65
26807;BME280;14380;49.910;6.792;2023-05-25T11:56:23;99555.47;;;20.97;63.42
26807;BME280;14380;49.910;6.792;2023-05-25T11:58:51;99551.81;;;20.44;61.48
26807;BME280;14380;49.910;6.792;2023-05-25T12:01:19;99547.88;;;21.02;62.74
26807;BME280;14380;49.910;6.792;2023-05-25T12:03:47;99551.56;;;21.42;63.41
26807;BME280;14380;49.910;6.792;2023-05-25T12:06:24;99551.38;;;21.02;60.62
26807;BME280;14380;49.910;6.792;2023-05-25T12:08:51;99557.94;;;21.72;64.18
26807;BME280;14380;49.910;6.792;2023-05-25T12:11:18;99554.00;;;21.14;61.91
26807;BME280;14380;49.910;6.792;2023-05-25T12:13:53;99546.78;;;21.76;62.28
26807;BME280;14380;49.910;6.792;2023-05-25T12:16:20;99549.44;;;21.04;61.78
26807;BME280;14380;49.910;6.792;2023-05-25T12:18:47;99549.78;;;21.52;60.08
26807;BME280;14380;49.910;6.792;2023-05-25T12:21:14;99550.47;;;21.13;62.46
26807;BME280;14380;49.910;6.792;2023-05-25T12:23:41;99538.00;;;21.33;61.86
26807;BME280;14380;49.910;6.792;2023-05-25T12:26:09;99546.59;;;21.27;63.78
26807;BME280;14380;49.910;6.792;2023-05-25T12:28:36;99536.16;;;21.44;62.44
26807;BME280;14380;49.910;6.792;2023-05-25T12:31:20;99542.16;;;21.16;61.31
26807;BME280;14380;49.910;6.792;2023-05-25T12:34:01;99539.75;;;21.13;61.38
26807;BME280;14380;49.910;6.792;2023-05-25T12:36:43;99539.22;;;21.60;62.66
26807;BME280;14380;49.910;6.792;2023-05-25T12:39:11;99530.00;;;21.53;62.52
26807;BME280;14380;49.910;6.792;2023-05-25T12:41:43;99541.13;;;21.79;61.08
26807;BME280;14380;49.910;6.792;2023-05-25T12:44:20;99534.25;;;22.16;60.01
26807;BME280;14380;49.910;6.792;2023-05-25T12:46:50;99536.38;;;22.71;59.81
26807;BME280;14380;49.910;6.792;2023-05-25T12:49:24;99534.69;;;22.21;59.82
26807;BME280;14380;49.910;6.792;2023-05-25T12:51:51;99537.72;;;21.77;59.79
26807;BME280;14380;49.910;6.792;2023-05-25T12:54:32;99528.88;;;22.26;61.22
26807;BME280;14380;49.910;6.792;2023-05-25T12:56:59;99519.94;;;22.16;59.05
26807;BME280;14380;49.910;6.792;2023-05-25T12:59:27;99517.25;;;22.55;59.92
26807;BME280;14380;49.910;6.792;2023-05-25T13:01:55;99528.84;;;21.87;60.53
26807;BME280;14380;49.910;6.792;2023-05-25T13:04:22;99525.06;;;22.28;60.90
26807;BME280;14380;49.910;6.792;2023-05-25T13:06:49;99514.97;;;22.31;60.06